sensor_id;sensor_type;location;lat;lon;timestamp;P1;durP1;ratioP1;P2;durP2;ratioP2
65641;SDS011;52340;-6.720;108.544;2023-04-07T00:43:24;60.17;;;36.60;;
65641;SDS011;52340;-6.720;108.544;2023-04-07T01:18:21;38.53;;;25.65;;
65641;SDS011;52340;-6.720;108.544;2023-04-07T01:19:31;37.75;;;25.88;;
65641;SDS011;52340;-6.720;108.544;2023-04-07T01:20:34;42.92;;;27.52;;
65641;SDS011;52340;-6.720;108.544;2023-04-07T01:21:36;41.67;;;27.30;;
65641;SDS011;52340;-6.720;108.544;2023-04-07T01:22:40;42.80;;;27.80;;
65641;SDS011;52340;-6.720;108.544;2023-04-07T01:23:51;45.13;;;28.48;;
65641;SDS011;52340;-6.720;108.544;2023-04-07T01:44:43;45.95;;;27.63;;
65641;SDS011;52340;-6.720;108.544;2023-04-07T01:45:46;37.05;;;24.25;;
65641;SDS011;52340;-6.720;108.544;2023-04-07T01:46:50;38.55;;;25.52;;
65641;SDS011;52340;-6.720;108.544;2023-04-07T01:47:52;34.72;;;21.70;;
65641;SDS011;52340;-6.720;108.544;2023-04-07T01:50:05;41.80;;;27.15;;
65641;SDS011;52340;-6.720;108.544;2023-04-07T01:51:07;49.10;;;34.58;;
65641;SDS011;52340;-6.720;108.544;2023-04-07T01:52:09;51.80;;;35.85;;
65641;SDS011;52340;-6.720;108.544;2023-04-07T01:53:14;52.30;;;37.88;;
65641;SDS011;52340;-6.720;108.544;2023-04-07T01:54:16;39.17;;;26.95;;
65641;SDS011;52340;-6.720;108.544;2023-04-07T01:56:28;35.83;;;26.52;;
65641;SDS011;52340;-6.720;108.544;2023-04-07T01:57:29;44.47;;;30.30;;
65641;SDS011;52340;-6.720;108.544;2023-04-07T01:58:31;40.58;;;26.60;;
65641;SDS011;52340;-6.720;108.544;2023-04-07T01:59:33;38.05;;;23.85;;
65641;SDS011;52340;-6.720;108.544;2023-04-07T02:00:36;38.30;;;26.25;;
65641;SDS011;52340;-6.720;108.544;2023-04-07T02:01:38;38.90;;;25.85;;
65641;SDS011;52340;-6.720;108.544;2023-04-07T02:02:47;37.42;;;25.95;;
65641;SDS011;52340;-6.720;108.544;2023-04-07T02:03:51;32.92;;;23.60;;
65641;SDS011;52340;-6.720;108.544;2023-04-07T02:07:09;31.00;;;20.80;;
65641;SDS011;52340;-6.720;108.544;2023-04-07T02:08:17;26.23;;;19.40;;
65641;SDS011;52340;-6.720;108.544;2023-04-07T02:09:20;28.65;;;17.92;;
65641;SDS011;52340;-6.720;108.544;2023-04-07T02:10:23;27.45;;;20.08;;
65641;SDS011;52340;-6.720;108.544;2023-04-07T02:12:35;24.67;;;17.48;;
65641;SDS011;52340;-6.720;108.544;2023-04-07T02:13:38;30.17;;;19.80;;
65641;SDS011;52340;-6.720;108.544;2023-04-07T02:14:40;27.95;;;19.00;;
65641;SDS011;52340;-6.720;108.544;2023-04-07T02:15:44;31.23;;;18.95;;
65641;SDS011;52340;-6.720;108.544;2023-04-07T02:17:51;27.42;;;19.25;;
65641;SDS011;52340;-6.720;108.544;2023-04-07T02:18:53;27.33;;;19.13;;
65641;SDS011;52340;-6.720;108.544;2023-04-07T02:19:55;29.52;;;18.30;;
65641;SDS011;52340;-6.720;108.544;2023-04-07T02:22:08;24.33;;;16.00;;
65641;SDS011;52340;-6.720;108.544;2023-04-07T02:23:11;26.85;;;16.25;;
65641;SDS011;52340;-6.720;108.544;2023-04-07T02:24:12;23.00;;;15.43;;
65641;SDS011;52340;-6.720;108.544;2023-04-07T02:25:21;23.08;;;14.85;;
65641;SDS011;52340;-6.720;108.544;2023-04-07T02:26:23;24.50;;;15.27;;
65641;SDS011;52340;-6.720;108.544;2023-04-07T02:27:25;22.75;;;15.20;;
65641;SDS011;52340;-6.720;108.544;2023-04-07T02:28:26;24.60;;;14.98;;
65641;SDS011;52340;-6.720;108.544;2023-04-07T02:29:28;24.05;;;14.88;;
65641;SDS011;52340;-6.720;108.544;2023-04-07T02:30:30;22.35;;;14.48;;
65641;SDS011;52340;-6.720;108.544;2023-04-07T02:31:33;25.75;;;15.38;;
65641;SDS011;52340;-6.720;108.544;2023-04-07T02:32:38;20.85;;;14.50;;
65641;SDS011;52340;-6.720;108.544;2023-04-07T02:33:41;26.95;;;16.67;;
65641;SDS011;52340;-6.720;108.544;2023-04-07T02:34:43;27.42;;;16.08;;
65641;SDS011;52340;-6.720;108.544;2023-04-07T02:35:45;23.88;;;15.75;;
65641;SDS011;52340;-6.720;108.544;2023-04-07T02:36:47;22.08;;;15.05;;
65641;SDS011;52340;-6.720;108.544;2023-04-07T02:37:48;23.17;;;16.20;;
65641;SDS011;52340;-6.720;108.544;2023-04-07T02:38:50;24.55;;;16.80;;
65641;SDS011;52340;-6.720;108.544;2023-04-07T02:39:52;24.08;;;16.83;;
65641;SDS011;52340;-6.720;108.544;2023-04-07T02:42:00;24.38;;;16.75;;
65641;SDS011;52340;-6.720;108.544;2023-04-07T02:44:06;24.80;;;17.65;;
65641;SDS011;52340;-6.720;108.544;2023-04-07T02:45:08;26.15;;;16.92;;
65641;SDS011;52340;-6.720;108.544;2023-04-07T02:46:11;25.73;;;16.70;;
65641;SDS011;52340;-6.720;108.544;2023-04-07T02:48:20;28.17;;;17.95;;
65641;SDS011;52340;-6.720;108.544;2023-04-07T02:49:23;31.23;;;18.92;;
65641;SDS011;52340;-6.720;108.544;2023-04-07T02:50:25;27.40;;;17.48;;
65641;SDS011;52340;-6.720;108.544;2023-04-07T02:51:27;24.40;;;17.55;;
65641;SDS011;52340;-6.720;108.544;2023-04-07T02:52:29;28.02;;;17.48;;
65641;SDS011;52340;-6.720;108.544;2023-04-07T02:53:30;23.83;;;16.30;;
65641;SDS011;52340;-6.720;108.544;2023-04-07T02:54:32;24.52;;;16.75;;
65641;SDS011;52340;-6.720;108.544;2023-04-07T02:55:34;26.00;;;17.13;;
65641;SDS011;52340;-6.720;108.544;2023-04-07T02:56:36;27.23;;;18.20;;
65641;SDS011;52340;-6.720;108.544;2023-04-07T02:57:37;27.98;;;18.35;;
65641;SDS011;52340;-6.720;108.544;2023-04-07T02:58:39;27.95;;;17.88;;
65641;SDS011;52340;-6.720;108.544;2023-04-07T02:59:41;26.42;;;18.20;;
65641;SDS011;52340;-6.720;108.544;2023-04-07T03:00:43;28.92;;;18.15;;
65641;SDS011;52340;-6.720;108.544;2023-04-07T03:01:44;27.75;;;19.63;;
65641;SDS011;52340;-6.720;108.544;2023-04-07T03:02:46;27.33;;;19.02;;
65641;SDS011;52340;-6.720;108.544;2023-04-07T03:03:52;31.15;;;20.08;;
65641;SDS011;52340;-6.720;108.544;2023-04-07T03:04:54;27.17;;;19.20;;
65641;SDS011;52340;-6.720;108.544;2023-04-07T03:05:55;30.52;;;19.50;;
65641;SDS011;52340;-6.720;108.544;2023-04-07T03:06:57;27.17;;;18.80;;
65641;SDS011;52340;-6.720;108.544;2023-04-07T03:07:59;27.25;;;19.67;;
65641;SDS011;52340;-6.720;108.544;2023-04-07T03:09:01;27.00;;;19.95;;
65641;SDS011;52340;-6.720;108.544;2023-04-07T03:10:03;28.50;;;20.17;;
65641;SDS011;52340;-6.720;108.544;2023-04-07T03:11:05;31.67;;;22.20;;
65641;SDS011;52340;-6.720;108.544;2023-04-07T03:12:06;27.73;;;20.55;;
65641;SDS011;52340;-6.720;108.544;2023-04-07T03:13:08;32.08;;;23.35;;
65641;SDS011;52340;-6.720;108.544;2023-04-07T03:14:10;33.42;;;23.23;;
65641;SDS011;52340;-6.720;108.544;2023-04-07T03:15:12;29.80;;;21.85;;
65641;SDS011;52340;-6.720;108.544;2023-04-07T03:16:13;25.23;;;18.67;;
65641;SDS011;52340;-6.720;108.544;2023-04-07T03:17:15;25.35;;;17.67;;
65641;SDS011;52340;-6.720;108.544;2023-04-07T03:18:19;26.35;;;18.10;;
65641;SDS011;52340;-6.720;108.544;2023-04-07T03:19:23;27.02;;;18.65;;
65641;SDS011;52340;-6.720;108.544;2023-04-07T03:20:24;24.23;;;18.30;;
65641;SDS011;52340;-6.720;108.544;2023-04-07T03:22:31;23.10;;;17.30;;
65641;SDS011;52340;-6.720;108.544;2023-04-07T03:23:33;23.55;;;16.92;;
65641;SDS011;52340;-6.720;108.544;2023-04-07T03:24:34;22.98;;;17.08;;
65641;SDS011;52340;-6.720;108.544;2023-04-07T03:25:36;24.48;;;16.65;;
65641;SDS011;52340;-6.720;108.544;2023-04-07T03:27:42;25.02;;;16.95;;
65641;SDS011;52340;-6.720;108.544;2023-04-07T03:29:48;24.17;;;17.40;;
65641;SDS011;52340;-6.720;108.544;2023-04-07T03:30:50;27.60;;;18.17;;
65641;SDS011;52340;-6.720;108.544;2023-04-07T03:31:52;26.65;;;18.90;;
65641;SDS011;52340;-6.720;108.544;2023-04-07T03:32:53;26.73;;;19.95;;
65641;SDS011;52340;-6.720;108.544;2023-04-07T03:33:55;29.98;;;20.63;;
65641;SDS011;52340;-6.720;108.544;2023-04-07T03:34:59;29.30;;;20.38;;
65641;SDS011;52340;-6.720;108.544;2023-04-07T03:36:00;30.63;;;20.33;;
65641;SDS011;52340;-6.720;108.544;2023-04-07T03:37:05;32.35;;;21.15;;
65641;SDS011;52340;-6.720;108.544;2023-04-07T03:38:07;31.23;;;21.55;;
65641;SDS011;52340;-6.720;108.544;2023-04-07T03:39:08;30.48;;;21.90;;
65641;SDS011;52340;-6.720;108.544;2023-04-07T03:40:11;28.75;;;20.75;;
65641;SDS011;52340;-6.720;108.544;2023-04-07T03:41:12;25.40;;;17.63;;
65641;SDS011;52340;-6.720;108.544;2023-04-07T03:42:14;23.80;;;16.80;;
65641;SDS011;52340;-6.720;108.544;2023-04-07T03:43:16;20.13;;;14.20;;
65641;SDS011;52340;-6.720;108.544;2023-04-07T03:44:18;20.38;;;14.30;;
65641;SDS011;52340;-6.720;108.544;2023-04-07T03:45:19;23.27;;;14.68;;
65641;SDS011;52340;-6.720;108.544;2023-04-07T03:46:21;23.50;;;14.57;;
65641;SDS011;52340;-6.720;108.544;2023-04-07T03:47:23;20.05;;;12.90;;
65641;SDS011;52340;-6.720;108.544;2023-04-07T03:48:25;17.67;;;11.82;;
65641;SDS011;52340;-6.720;108.544;2023-04-07T03:49:27;22.35;;;11.77;;
65641;SDS011;52340;-6.720;108.544;2023-04-07T03:50:31;16.52;;;11.65;;
65641;SDS011;52340;-6.720;108.544;2023-04-07T03:51:32;15.98;;;10.40;;
65641;SDS011;52340;-6.720;108.544;2023-04-07T03:52:34;16.23;;;10.98;;
65641;SDS011;52340;-6.720;108.544;2023-04-07T03:53:38;17.85;;;11.75;;
65641;SDS011;52340;-6.720;108.544;2023-04-07T03:54:40;17.70;;;10.93;;
65641;SDS011;52340;-6.720;108.544;2023-04-07T03:55:42;16.98;;;10.93;;
65641;SDS011;52340;-6.720;108.544;2023-04-07T03:56:44;16.80;;;11.52;;
65641;SDS011;52340;-6.720;108.544;2023-04-07T03:57:45;16.98;;;10.55;;
65641;SDS011;52340;-6.720;108.544;2023-04-07T03:58:47;19.10;;;11.10;;
65641;SDS011;52340;-6.720;108.544;2023-04-07T03:59:49;15.00;;;10.13;;
65641;SDS011;52340;-6.720;108.544;2023-04-07T04:00:51;18.60;;;10.88;;
65641;SDS011;52340;-6.720;108.544;2023-04-07T04:01:53;16.30;;;10.95;;
65641;SDS011;52340;-6.720;108.544;2023-04-07T04:02:54;17.83;;;11.07;;
65641;SDS011;52340;-6.720;108.544;2023-04-07T04:03:56;17.75;;;11.10;;
65641;SDS011;52340;-6.720;108.544;2023-04-07T04:04:58;16.80;;;10.13;;
65641;SDS011;52340;-6.720;108.544;2023-04-07T04:06:04;15.20;;;10.38;;
65641;SDS011;52340;-6.720;108.544;2023-04-07T04:07:06;14.45;;;9.85;;
65641;SDS011;52340;-6.720;108.544;2023-04-07T04:08:08;15.07;;;10.07;;
65641;SDS011;52340;-6.720;108.544;2023-04-07T04:09:10;14.88;;;10.20;;
65641;SDS011;52340;-6.720;108.544;2023-04-07T04:10:12;16.88;;;10.13;;
65641;SDS011;52340;-6.720;108.544;2023-04-07T04:11:13;16.48;;;9.57;;
65641;SDS011;52340;-6.720;108.544;2023-04-07T04:12:15;16.35;;;9.57;;
65641;SDS011;52340;-6.720;108.544;2023-04-07T04:13:17;15.32;;;9.15;;
65641;SDS011;52340;-6.720;108.544;2023-04-07T04:14:19;15.07;;;9.10;;
65641;SDS011;52340;-6.720;108.544;2023-04-07T04:15:20;15.75;;;9.23;;
65641;SDS011;52340;-6.720;108.544;2023-04-07T04:16:22;16.13;;;9.13;;
65641;SDS011;52340;-6.720;108.544;2023-04-07T04:17:24;13.45;;;9.45;;
65641;SDS011;52340;-6.720;108.544;2023-04-07T04:18:26;15.00;;;8.80;;
65641;SDS011;52340;-6.720;108.544;2023-04-07T04:19:28;16.15;;;9.05;;
65641;SDS011;52340;-6.720;108.544;2023-04-07T04:20:29;14.63;;;8.55;;
65641;SDS011;52340;-6.720;108.544;2023-04-07T04:21:33;12.65;;;8.40;;
65641;SDS011;52340;-6.720;108.544;2023-04-07T04:22:35;13.75;;;9.07;;
65641;SDS011;52340;-6.720;108.544;2023-04-07T04:23:36;13.93;;;8.98;;
65641;SDS011;52340;-6.720;108.544;2023-04-07T04:24:38;15.93;;;9.77;;
65641;SDS011;52340;-6.720;108.544;2023-04-07T04:25:40;13.95;;;8.65;;
65641;SDS011;52340;-6.720;108.544;2023-04-07T04:26:42;14.48;;;9.05;;
65641;SDS011;52340;-6.720;108.544;2023-04-07T04:27:44;12.43;;;7.90;;
65641;SDS011;52340;-6.720;108.544;2023-04-07T04:28:45;12.80;;;7.95;;
65641;SDS011;52340;-6.720;108.544;2023-04-07T04:29:47;12.57;;;8.15;;
65641;SDS011;52340;-6.720;108.544;2023-04-07T04:30:51;13.65;;;8.35;;
65641;SDS011;52340;-6.720;108.544;2023-04-07T04:31:53;13.40;;;8.30;;
65641;SDS011;52340;-6.720;108.544;2023-04-07T04:32:55;14.00;;;7.70;;
65641;SDS011;52340;-6.720;108.544;2023-04-07T04:33:57;13.60;;;7.75;;
65641;SDS011;52340;-6.720;108.544;2023-04-07T04:34:59;14.63;;;7.90;;
65641;SDS011;52340;-6.720;108.544;2023-04-07T04:36:00;12.85;;;7.68;;
65641;SDS011;52340;-6.720;108.544;2023-04-07T04:37:04;12.98;;;8.00;;
65641;SDS011;52340;-6.720;108.544;2023-04-07T04:38:06;14.70;;;8.27;;
65641;SDS011;52340;-6.720;108.544;2023-04-07T04:39:08;12.10;;;7.68;;
65641;SDS011;52340;-6.720;108.544;2023-04-07T04:40:10;13.18;;;8.02;;
65641;SDS011;52340;-6.720;108.544;2023-04-07T04:41:12;14.77;;;8.40;;
65641;SDS011;52340;-6.720;108.544;2023-04-07T04:42:14;13.55;;;7.93;;
65641;SDS011;52340;-6.720;108.544;2023-04-07T04:43:15;13.68;;;8.18;;
65641;SDS011;52340;-6.720;108.544;2023-04-07T04:44:17;13.00;;;7.50;;
65641;SDS011;52340;-6.720;108.544;2023-04-07T04:45:19;15.93;;;8.10;;
65641;SDS011;52340;-6.720;108.544;2023-04-07T04:46:21;12.80;;;7.82;;
65641;SDS011;52340;-6.720;108.544;2023-04-07T04:47:23;14.75;;;8.85;;
65641;SDS011;52340;-6.720;108.544;2023-04-07T04:48:24;13.48;;;8.57;;
65641;SDS011;52340;-6.720;108.544;2023-04-07T04:49:28;13.75;;;9.15;;
65641;SDS011;52340;-6.720;108.544;2023-04-07T04:50:30;14.73;;;8.25;;
65641;SDS011;52340;-6.720;108.544;2023-04-07T04:51:32;15.27;;;8.48;;
65641;SDS011;52340;-6.720;108.544;2023-04-07T04:52:38;12.55;;;8.02;;
65641;SDS011;52340;-6.720;108.544;2023-04-07T04:53:40;14.02;;;8.73;;
65641;SDS011;52340;-6.720;108.544;2023-04-07T04:54:42;14.43;;;8.60;;
65641;SDS011;52340;-6.720;108.544;2023-04-07T04:55:43;16.02;;;9.10;;
65641;SDS011;52340;-6.720;108.544;2023-04-07T04:56:45;15.07;;;9.45;;
65641;SDS011;52340;-6.720;108.544;2023-04-07T04:57:47;15.05;;;8.98;;
65641;SDS011;52340;-6.720;108.544;2023-04-07T04:58:49;15.45;;;8.80;;
65641;SDS011;52340;-6.720;108.544;2023-04-07T04:59:51;14.70;;;8.98;;
65641;SDS011;52340;-6.720;108.544;2023-04-07T05:00:53;15.50;;;9.30;;
65641;SDS011;52340;-6.720;108.544;2023-04-07T05:01:54;15.50;;;9.02;;
65641;SDS011;52340;-6.720;108.544;2023-04-07T05:02:56;13.68;;;9.05;;
65641;SDS011;52340;-6.720;108.544;2023-04-07T05:03:58;17.80;;;9.70;;
65641;SDS011;52340;-6.720;108.544;2023-04-07T05:05:00;15.07;;;9.18;;
65641;SDS011;52340;-6.720;108.544;2023-04-07T05:06:04;15.55;;;9.88;;
65641;SDS011;52340;-6.720;108.544;2023-04-07T05:07:09;15.90;;;9.70;;
65641;SDS011;52340;-6.720;108.544;2023-04-07T05:08:13;15.27;;;9.85;;
65641;SDS011;52340;-6.720;108.544;2023-04-07T05:09:17;18.77;;;10.95;;
65641;SDS011;52340;-6.720;108.544;2023-04-07T05:10:19;18.63;;;11.77;;
65641;SDS011;52340;-6.720;108.544;2023-04-07T05:11:21;19.98;;;11.23;;
65641;SDS011;52340;-6.720;108.544;2023-04-07T05:12:23;19.85;;;11.70;;
65641;SDS011;52340;-6.720;108.544;2023-04-07T05:13:25;18.45;;;11.27;;
65641;SDS011;52340;-6.720;108.544;2023-04-07T05:14:26;18.08;;;11.25;;
65641;SDS011;52340;-6.720;108.544;2023-04-07T05:15:28;16.60;;;11.18;;
65641;SDS011;52340;-6.720;108.544;2023-04-07T05:16:30;19.63;;;11.75;;
65641;SDS011;52340;-6.720;108.544;2023-04-07T05:17:32;16.77;;;11.40;;
65641;SDS011;52340;-6.720;108.544;2023-04-07T05:18:34;17.23;;;11.55;;
65641;SDS011;52340;-6.720;108.544;2023-04-07T05:19:38;17.85;;;11.32;;
65641;SDS011;52340;-6.720;108.544;2023-04-07T05:20:40;16.10;;;10.32;;
65641;SDS011;52340;-6.720;108.544;2023-04-07T05:21:42;17.25;;;10.73;;
65641;SDS011;52340;-6.720;108.544;2023-04-07T05:22:43;16.95;;;10.70;;
65641;SDS011;52340;-6.720;108.544;2023-04-07T05:23:47;16.40;;;10.55;;
65641;SDS011;52340;-6.720;108.544;2023-04-07T05:24:49;15.50;;;10.45;;
65641;SDS011;52340;-6.720;108.544;2023-04-07T05:25:50;17.33;;;11.15;;
65641;SDS011;52340;-6.720;108.544;2023-04-07T05:26:52;15.45;;;9.93;;
65641;SDS011;52340;-6.720;108.544;2023-04-07T05:27:54;16.30;;;10.82;;
65641;SDS011;52340;-6.720;108.544;2023-04-07T05:28:58;19.90;;;11.73;;
65641;SDS011;52340;-6.720;108.544;2023-04-07T05:30:00;18.58;;;12.13;;
65641;SDS011;52340;-6.720;108.544;2023-04-07T05:31:01;20.77;;;12.50;;
65641;SDS011;52340;-6.720;108.544;2023-04-07T05:32:04;18.88;;;11.82;;
65641;SDS011;52340;-6.720;108.544;2023-04-07T05:33:08;18.83;;;12.18;;
65641;SDS011;52340;-6.720;108.544;2023-04-07T05:34:10;20.70;;;12.25;;
65641;SDS011;52340;-6.720;108.544;2023-04-07T05:35:12;19.15;;;12.93;;
65641;SDS011;52340;-6.720;108.544;2023-04-07T05:36:14;20.55;;;13.20;;
65641;SDS011;52340;-6.720;108.544;2023-04-07T05:37:16;21.77;;;12.40;;
65641;SDS011;52340;-6.720;108.544;2023-04-07T05:38:18;20.75;;;13.35;;
65641;SDS011;52340;-6.720;108.544;2023-04-07T05:39:24;21.75;;;13.30;;
65641;SDS011;52340;-6.720;108.544;2023-04-07T05:40:26;18.88;;;11.82;;
65641;SDS011;52340;-6.720;108.544;2023-04-07T05:41:28;19.73;;;12.57;;
65641;SDS011;52340;-6.720;108.544;2023-04-07T05:42:29;18.38;;;12.50;;
65641;SDS011;52340;-6.720;108.544;2023-04-07T05:43:31;18.73;;;11.75;;
65641;SDS011;52340;-6.720;108.544;2023-04-07T05:44:33;18.75;;;11.30;;
65641;SDS011;52340;-6.720;108.544;2023-04-07T05:45:34;19.50;;;12.48;;
65641;SDS011;52340;-6.720;108.544;2023-04-07T05:46:36;20.27;;;11.80;;
65641;SDS011;52340;-6.720;108.544;2023-04-07T05:47:41;18.20;;;11.90;;
65641;SDS011;52340;-6.720;108.544;2023-04-07T05:48:42;20.13;;;12.57;;
65641;SDS011;52340;-6.720;108.544;2023-04-07T05:49:44;17.98;;;11.82;;
65641;SDS011;52340;-6.720;108.544;2023-04-07T05:50:48;18.65;;;11.60;;
65641;SDS011;52340;-6.720;108.544;2023-04-07T05:51:49;16.75;;;11.13;;
65641;SDS011;52340;-6.720;108.544;2023-04-07T05:52:51;15.93;;;10.85;;
65641;SDS011;52340;-6.720;108.544;2023-04-07T05:53:53;17.42;;;11.27;;
65641;SDS011;52340;-6.720;108.544;2023-04-07T05:54:56;17.05;;;11.82;;
65641;SDS011;52340;-6.720;108.544;2023-04-07T05:55:58;17.42;;;10.98;;
65641;SDS011;52340;-6.720;108.544;2023-04-07T05:57:03;18.55;;;11.57;;
65641;SDS011;52340;-6.720;108.544;2023-04-07T05:58:05;17.55;;;12.07;;
65641;SDS011;52340;-6.720;108.544;2023-04-07T05:59:06;17.90;;;11.88;;
65641;SDS011;52340;-6.720;108.544;2023-04-07T06:00:08;19.60;;;11.52;;
65641;SDS011;52340;-6.720;108.544;2023-04-07T06:01:14;18.40;;;11.77;;
65641;SDS011;52340;-6.720;108.544;2023-04-07T06:02:17;19.63;;;11.45;;
65641;SDS011;52340;-6.720;108.544;2023-04-07T06:03:19;18.08;;;11.57;;
65641;SDS011;52340;-6.720;108.544;2023-04-07T06:04:21;18.42;;;11.77;;
65641;SDS011;52340;-6.720;108.544;2023-04-07T06:05:22;16.17;;;10.50;;
65641;SDS011;52340;-6.720;108.544;2023-04-07T06:06:27;15.13;;;10.23;;
65641;SDS011;52340;-6.720;108.544;2023-04-07T06:07:29;15.07;;;9.98;;
65641;SDS011;52340;-6.720;108.544;2023-04-07T06:08:33;14.70;;;10.00;;
65641;SDS011;52340;-6.720;108.544;2023-04-07T06:10:38;16.80;;;10.30;;
65641;SDS011;52340;-6.720;108.544;2023-04-07T06:11:40;16.42;;;10.63;;
65641;SDS011;52340;-6.720;108.544;2023-04-07T06:13:47;15.00;;;10.80;;
65641;SDS011;52340;-6.720;108.544;2023-04-07T06:14:51;18.10;;;10.60;;
65641;SDS011;52340;-6.720;108.544;2023-04-07T06:15:53;18.48;;;11.00;;
65641;SDS011;52340;-6.720;108.544;2023-04-07T06:16:55;15.90;;;10.68;;
65641;SDS011;52340;-6.720;108.544;2023-04-07T06:17:57;17.58;;;10.90;;
65641;SDS011;52340;-6.720;108.544;2023-04-07T06:18:58;16.25;;;10.98;;
65641;SDS011;52340;-6.720;108.544;2023-04-07T06:20:00;17.70;;;11.70;;
65641;SDS011;52340;-6.720;108.544;2023-04-07T06:21:02;16.83;;;11.30;;
65641;SDS011;52340;-6.720;108.544;2023-04-07T06:22:05;17.60;;;11.82;;
65641;SDS011;52340;-6.720;108.544;2023-04-07T06:23:06;18.20;;;11.98;;
65641;SDS011;52340;-6.720;108.544;2023-04-07T06:24:08;16.75;;;11.80;;
65641;SDS011;52340;-6.720;108.544;2023-04-07T06:25:13;18.90;;;11.70;;
65641;SDS011;52340;-6.720;108.544;2023-04-07T06:26:17;16.70;;;12.52;;
65641;SDS011;52340;-6.720;108.544;2023-04-07T06:27:20;18.42;;;12.30;;
65641;SDS011;52340;-6.720;108.544;2023-04-07T06:28:22;19.30;;;12.73;;
65641;SDS011;52340;-6.720;108.544;2023-04-07T06:29:23;18.08;;;12.30;;
65641;SDS011;52340;-6.720;108.544;2023-04-07T06:30:25;17.88;;;12.50;;
65641;SDS011;52340;-6.720;108.544;2023-04-07T06:31:27;18.15;;;12.20;;
65641;SDS011;52340;-6.720;108.544;2023-04-07T06:32:29;18.50;;;12.20;;
65641;SDS011;52340;-6.720;108.544;2023-04-07T06:33:30;22.33;;;12.13;;
65641;SDS011;52340;-6.720;108.544;2023-04-07T06:34:32;20.20;;;11.93;;
65641;SDS011;52340;-6.720;108.544;2023-04-07T06:35:34;17.75;;;11.82;;
65641;SDS011;52340;-6.720;108.544;2023-04-07T06:36:35;19.42;;;12.13;;
65641;SDS011;52340;-6.720;108.544;2023-04-07T06:38:45;16.60;;;11.63;;
65641;SDS011;52340;-6.720;108.544;2023-04-07T06:39:47;18.73;;;11.32;;
65641;SDS011;52340;-6.720;108.544;2023-04-07T06:40:49;16.50;;;11.23;;
65641;SDS011;52340;-6.720;108.544;2023-04-07T06:41:53;15.57;;;11.27;;
65641;SDS011;52340;-6.720;108.544;2023-04-07T06:42:54;18.08;;;11.35;;
65641;SDS011;52340;-6.720;108.544;2023-04-07T06:43:59;16.38;;;10.73;;
65641;SDS011;52340;-6.720;108.544;2023-04-07T06:45:01;15.75;;;10.82;;
65641;SDS011;52340;-6.720;108.544;2023-04-07T06:46:03;17.27;;;10.13;;
65641;SDS011;52340;-6.720;108.544;2023-04-07T06:47:05;14.80;;;10.00;;
65641;SDS011;52340;-6.720;108.544;2023-04-07T06:48:06;13.63;;;10.02;;
65641;SDS011;52340;-6.720;108.544;2023-04-07T06:49:08;17.30;;;10.68;;
65641;SDS011;52340;-6.720;108.544;2023-04-07T06:50:10;15.55;;;10.65;;
65641;SDS011;52340;-6.720;108.544;2023-04-07T06:51:12;16.42;;;10.43;;
65641;SDS011;52340;-6.720;108.544;2023-04-07T06:52:16;13.00;;;9.38;;
65641;SDS011;52340;-6.720;108.544;2023-04-07T06:53:18;13.18;;;9.57;;
65641;SDS011;52340;-6.720;108.544;2023-04-07T06:54:20;14.57;;;9.60;;
65641;SDS011;52340;-6.720;108.544;2023-04-07T06:55:22;13.48;;;9.00;;
65641;SDS011;52340;-6.720;108.544;2023-04-07T06:56:25;14.02;;;9.27;;
65641;SDS011;52340;-6.720;108.544;2023-04-07T06:57:29;14.65;;;8.50;;
65641;SDS011;52340;-6.720;108.544;2023-04-07T06:59:31;12.63;;;8.37;;
65641;SDS011;52340;-6.720;108.544;2023-04-07T07:00:33;14.43;;;8.55;;
65641;SDS011;52340;-6.720;108.544;2023-04-07T07:01:35;12.75;;;8.77;;
65641;SDS011;52340;-6.720;108.544;2023-04-07T07:02:36;11.30;;;7.20;;
65641;SDS011;52340;-6.720;108.544;2023-04-07T07:03:39;12.55;;;7.30;;
65641;SDS011;52340;-6.720;108.544;2023-04-07T07:04:40;11.85;;;7.25;;
65641;SDS011;52340;-6.720;108.544;2023-04-07T07:05:44;12.88;;;7.95;;
65641;SDS011;52340;-6.720;108.544;2023-04-07T07:06:46;14.30;;;7.05;;
65641;SDS011;52340;-6.720;108.544;2023-04-07T07:07:50;12.88;;;6.90;;
65641;SDS011;52340;-6.720;108.544;2023-04-07T07:08:52;11.63;;;7.47;;
65641;SDS011;52340;-6.720;108.544;2023-04-07T07:09:54;11.60;;;7.25;;
65641;SDS011;52340;-6.720;108.544;2023-04-07T07:10:56;12.15;;;7.80;;
65641;SDS011;52340;-6.720;108.544;2023-04-07T07:13:04;12.85;;;7.55;;
65641;SDS011;52340;-6.720;108.544;2023-04-07T07:14:08;12.75;;;7.40;;
65641;SDS011;52340;-6.720;108.544;2023-04-07T07:15:13;11.02;;;6.70;;
65641;SDS011;52340;-6.720;108.544;2023-04-07T07:16:14;10.55;;;6.40;;
65641;SDS011;52340;-6.720;108.544;2023-04-07T07:17:16;12.05;;;7.05;;
65641;SDS011;52340;-6.720;108.544;2023-04-07T07:18:18;13.13;;;7.07;;
65641;SDS011;52340;-6.720;108.544;2023-04-07T07:19:22;11.90;;;7.20;;
65641;SDS011;52340;-6.720;108.544;2023-04-07T07:20:24;11.02;;;6.65;;
65641;SDS011;52340;-6.720;108.544;2023-04-07T07:21:25;12.18;;;6.70;;
65641;SDS011;52340;-6.720;108.544;2023-04-07T07:22:27;10.05;;;6.45;;
65641;SDS011;52340;-6.720;108.544;2023-04-07T07:23:29;12.07;;;6.60;;
65641;SDS011;52340;-6.720;108.544;2023-04-07T07:24:31;10.13;;;6.10;;
65641;SDS011;52340;-6.720;108.544;2023-04-07T07:25:33;14.63;;;7.03;;
65641;SDS011;52340;-6.720;108.544;2023-04-07T07:26:35;12.35;;;6.70;;
65641;SDS011;52340;-6.720;108.544;2023-04-07T07:27:36;12.90;;;6.75;;
65641;SDS011;52340;-6.720;108.544;2023-04-07T07:28:40;10.75;;;6.72;;
65641;SDS011;52340;-6.720;108.544;2023-04-07T07:29:41;11.55;;;6.65;;
65641;SDS011;52340;-6.720;108.544;2023-04-07T07:30:43;10.75;;;6.65;;
65641;SDS011;52340;-6.720;108.544;2023-04-07T07:31:45;13.10;;;6.50;;
65641;SDS011;52340;-6.720;108.544;2023-04-07T07:33:47;12.60;;;6.50;;
65641;SDS011;52340;-6.720;108.544;2023-04-07T07:34:49;11.95;;;6.47;;
65641;SDS011;52340;-6.720;108.544;2023-04-07T07:35:53;12.13;;;6.75;;
65641;SDS011;52340;-6.720;108.544;2023-04-07T07:36:55;11.00;;;6.55;;
65641;SDS011;52340;-6.720;108.544;2023-04-07T07:37:57;11.55;;;6.90;;
65641;SDS011;52340;-6.720;108.544;2023-04-07T07:38:59;10.03;;;6.40;;
65641;SDS011;52340;-6.720;108.544;2023-04-07T07:40:01;10.77;;;6.57;;
65641;SDS011;52340;-6.720;108.544;2023-04-07T07:41:02;12.57;;;6.88;;
65641;SDS011;52340;-6.720;108.544;2023-04-07T07:42:04;11.00;;;6.88;;
65641;SDS011;52340;-6.720;108.544;2023-04-07T07:43:06;12.90;;;6.57;;
65641;SDS011;52340;-6.720;108.544;2023-04-07T07:44:10;12.07;;;7.10;;
65641;SDS011;52340;-6.720;108.544;2023-04-07T07:45:12;13.00;;;7.60;;
65641;SDS011;52340;-6.720;108.544;2023-04-07T07:46:13;12.02;;;7.30;;
65641;SDS011;52340;-6.720;108.544;2023-04-07T07:47:15;13.70;;;7.13;;
65641;SDS011;52340;-6.720;108.544;2023-04-07T07:48:17;12.82;;;6.38;;
65641;SDS011;52340;-6.720;108.544;2023-04-07T07:49:19;10.75;;;6.68;;
65641;SDS011;52340;-6.720;108.544;2023-04-07T07:50:21;10.63;;;6.22;;
65641;SDS011;52340;-6.720;108.544;2023-04-07T07:52:22;12.20;;;7.30;;
65641;SDS011;52340;-6.720;108.544;2023-04-07T07:53:24;15.75;;;8.50;;
65641;SDS011;52340;-6.720;108.544;2023-04-07T07:54:26;13.65;;;8.20;;